Resolute — WTW2234 — position and weather

sailwx.info

Track history (hours):
 
Tides and Currents Weather Stations Pressure Air Temp Water Temp Dewpoint Dewpoint Depression Visibility Wind Speed Wind Dir Waves Ship Positions

Resolute

Owner: Providence Steamboat Co., PROVIDENCE, RI. More information available from US FCC via Universal Licensing System and Coast Guard Vessel Documentation Center.

Last reported at 2015-May-23 04:33 UTC. Time now 2015-May-23 05:52 UTC.
Position N 41°00' W 073°18'.

Length 30 m; draft 4 m.

Type: Tug. MMSI: 367091630.

Date/timePositionNaut miles runAvg speedWind from/ knotsBaromVisibWave heightAir tempDewpointWater temp
2015-May-23 04:33N 41°00' W 073°18'7 6.7
2015-May-23 03:33N 40°59' W 073°27'16 7.5
2015-May-23 01:25N 40°51' W 073°45'6 6.7
2015-May-23 00:33N 40°48' W 073°51'5 5.4
2015-May-22 23:33N 40°45' W 073°58'5 4.5
2015-May-22 22:33N 40°41' W 074°01'3 3.4
2015-May-22 21:33N 40°39' W 074°03'1 0.7
2015-May-22 20:33N 40°39' W 074°04'6 5.6
2015-May-22 19:33N 40°39' W 074°11'3 2.0
2015-May-22 18:20N 40°36' W 074°12'3 3.7
2015-May-22 17:33N 40°38' W 074°10'3 2.7
2015-May-22 16:33N 40°39' W 074°06'3 2.8
2015-May-22 15:33N 40°40' W 074°03'13 9.8
2015-May-22 14:16N 40°29' W 073°55'5 7.4
2015-May-22 13:33N 40°32' W 074°01'7 7.4
2015-May-22 12:33N 40°39' W 074°04'2 2.4
2015-May-22 11:33N 40°39' W 074°07'0 0.4
2015-May-22 10:33N 40°39' W 074°08'0 0.0
2015-May-22 09:33N 40°38' W 074°08'2 1.8
2015-May-22 08:32N 40°39' W 074°10'0 0.0
2015-May-22 07:33N 40°39' W 074°10'0 0.0
2015-May-22 06:32N 40°39' W 074°10'6 4.8
2015-May-22 05:15N 40°33' W 074°14'0 0.0
2015-May-22 04:09N 40°33' W 074°14'0 0.0
2015-May-22 03:29N 40°33' W 074°14'3 1.6
2015-May-22 01:24N 40°36' W 074°12'6 7.4
2015-May-22 00:33N 40°39' W 074°05'3 3.4
2015-May-21 23:33N 40°40' W 074°00'4 4.0
2015-May-21 22:33N 40°39' W 074°05'3 3.3
2015-May-21 21:33N 40°38' W 074°10'0 0.0
2015-May-21 20:33N 40°38' W 074°10'0 0.0
2015-May-21 19:33N 40°38' W 074°10'0 0.0
2015-May-21 18:31N 40°38' W 074°10'0 0.0
2015-May-21 17:33N 40°38' W 074°10'3 3.2
2015-May-21 16:33N 40°39' W 074°06'4 4.1
2015-May-21 15:33N 40°40' W 074°00'1 1.2
2015-May-21 14:33N 40°40' W 074°02'1 0.6
2015-May-21 13:34N 40°40' W 074°01'3 2.7
2015-May-21 12:34N 40°42' W 073°60'5 5.3
2015-May-21 11:34N 40°47' W 073°56'2 2.0
2015-May-21 10:33N 40°48' W 073°54'0 0.0
2015-May-21 09:27N 40°48' W 073°54'0 0.0
2015-May-21 08:28N 40°48' W 073°54'0 0.0
2015-May-21 07:33N 40°48' W 073°54'0 0.0
2015-May-21 06:31N 40°48' W 073°54'0 0.0
2015-May-21 05:19N 40°48' W 073°54'0 0.0
2015-May-21 04:33N 40°48' W 073°54'0 0.0
2015-May-21 03:33N 40°48' W 073°54'0 0.0
2015-May-21 02:26N 40°48' W 073°54'0 0.0
2015-May-21 01:34N 40°48' W 073°54'0 0.0
2015-May-21 00:22N 40°48' W 073°54'0 0.0
2015-May-20 23:32N 40°48' W 073°54'2 2.0
2015-May-20 22:33N 40°47' W 073°56'5 5.0
2015-May-20 21:34N 40°42' W 073°59'4 3.7
2015-May-20 20:34N 40°40' W 074°02'0 0.0
2015-May-20 19:34N 40°40' W 074°02'0 0.0
2015-May-20 18:33N 40°40' W 074°02'0 0.0
2015-May-20 17:33N 40°40' W 074°02'5 5.0
2015-May-20 16:33N 40°38' W 074°09'5 4.4
2015-May-20 15:30N 40°35' W 074°13'4 4.2
2015-May-20 14:34N 40°38' W 074°10'1 0.9
2015-May-20 13:32N 40°39' W 074°09'4 3.8
2015-May-20 12:33N 40°40' W 074°04'0 0.0
2015-May-20 11:33N 40°40' W 074°04'0 0.0
2015-May-20 10:33N 40°40' W 074°04'0 0.0
2015-May-20 09:28N 40°40' W 074°04'1 1.5
2015-May-20 08:34N 40°39' W 074°05'2 2.1
2015-May-20 07:33N 40°39' W 074°03'2 2.2
2015-May-20 06:34N 40°40' W 074°01'7 7.2
2015-May-20 05:33N 40°38' W 074°10'0 0.0
2015-May-20 04:34N 40°38' W 074°10'0 0.0
2015-May-20 03:33N 40°38' W 074°10'0 0.0
2015-May-20 02:34N 40°38' W 074°10'1 0.6
2015-May-20 01:34N 40°39' W 074°09'3 3.2
2015-May-20 00:33N 40°42' W 074°08'0 0.3
2015-May-19 23:33N 40°41' W 074°08'1 1.0
2015-May-19 22:33N 40°40' W 074°08'0 0.0
2015-May-19 21:33N 40°40' W 074°08'0 0.0
2015-May-19 20:34N 40°40' W 074°08'0 0.0
2015-May-19 19:34N 40°40' W 074°08'0 0.0
2015-May-19 18:34N 40°40' W 074°08'0 0.0
2015-May-19 17:33N 40°40' W 074°08'0 0.0
2015-May-19 16:34N 40°40' W 074°08'1 0.5
2015-May-19 15:34N 40°41' W 074°08'1 0.9
2015-May-19 14:33N 40°42' W 074°08'3 3.3
2015-May-19 13:34N 40°38' W 074°10'0 0.2
2015-May-19 12:34N 40°38' W 074°10'0 0.0
2015-May-19 11:33N 40°38' W 074°10'0 0.0
2015-May-19 10:33N 40°38' W 074°10'0 0.0
2015-May-19 09:33N 40°38' W 074°10'0 0.0
2015-May-19 08:33N 40°38' W 074°10'0 0.0
2015-May-19 07:33N 40°38' W 074°10'0 0.0
2015-May-19 06:33N 40°38' W 074°10'0 0.0
2015-May-19 05:33N 40°38' W 074°10'0 0.0
2015-May-19 04:33N 40°38' W 074°10'0 0.0
2015-May-19 03:33N 40°38' W 074°10'0 0.0
2015-May-19 02:34N 40°38' W 074°10'0 0.0
2015-May-19 01:33N 40°38' W 074°10'0 0.0
2015-May-19 00:32N 40°38' W 074°10'0 0.0
2015-May-18 23:33N 40°38' W 074°10'0 0.0
2015-May-18 22:34N 40°38' W 074°10'2 2.5
2015-May-18 21:34N 40°41' W 074°09'2 2.0
2015-May-18 20:34N 40°39' W 074°09'4 3.9
2015-May-18 19:34N 40°40' W 074°04'0 0.0
2015-May-18 18:34N 40°40' W 074°04'1 1.4
2015-May-18 17:33N 40°39' W 074°03'4 4.1
2015-May-18 16:33N 40°43' W 074°02'7 6.6
2015-May-18 15:33N 40°47' W 073°55'6 6.4
2015-May-18 14:33N 40°49' W 073°47'7 6.6
2015-May-18 13:32N 40°54' W 073°41'10 9.8
2015-May-18 12:34N 40°58' W 073°30'9 9.3
2015-May-18 11:34N 41°01' W 073°18'9 9.1
2015-May-18 10:33N 41°02' W 073°06'9 8.5
2015-May-18 09:33N 41°04' W 072°55'8 8.3
2015-May-18 08:33N 41°06' W 072°44'8 7.6
2015-May-18 07:34N 41°08' W 072°34'7 6.5
2015-May-18 06:34N 41°09' W 072°26'6 6.0
2015-May-18 05:33N 41°11' W 072°18'6 6.4
2015-May-18 04:33N 41°13' W 072°10'8 8.1
2015-May-18 03:33N 41°14' W 071°60'9 9.2
2015-May-18 02:33N 41°16' W 071°48'9 8.7
2015-May-18 01:33N 41°18' W 071°36'8 7.6
2015-May-18 00:33N 41°20' W 071°27'8 8.4
2015-May-17 23:33N 41°28' W 071°22'5 5.3
2015-May-17 22:33N 41°33' W 071°19'3 2.5
2015-May-17 21:34N 41°31' W 071°21'5 4.6
2015-May-17 20:33N 41°26' W 071°22'4 4.4
2015-May-17 19:33N 41°22' W 071°21'4 4.1
2015-May-17 18:33N 41°18' W 071°21'3 3.5
2015-May-17 17:33N 41°14' W 071°21'1 1.1
2015-May-17 16:33N 41°15' W 071°22'4 3.7
2015-May-17 15:33N 41°19' W 071°22'4 3.6
2015-May-17 14:34N 41°22' W 071°22'3 2.7
2015-May-17 13:33N 41°22' W 071°26'5 5.2
2015-May-17 12:33N 41°18' W 071°30'6 5.8
2015-May-17 11:33N 41°17' W 071°38'6 5.8
2015-May-17 10:33N 41°16' W 071°46'6 6.1
2015-May-17 09:33N 41°15' W 071°54'8 7.7
2015-May-17 08:33N 41°14' W 072°04'9 8.6
2015-May-17 07:33N 41°13' W 072°15'10 9.7
2015-May-17 06:34N 41°09' W 072°27'9 8.7
2015-May-17 05:34N 41°06' W 072°38'8 7.6
2015-May-17 04:33N 41°05' W 072°48'7 6.9
2015-May-17 03:33N 41°03' W 072°57'7 6.6
2015-May-17 02:33N 41°02' W 073°05'6 6.3
2015-May-17 01:33N 41°01' W 073°14'6 5.9
2015-May-17 00:33N 41°01' W 073°21'6 5.7
2015-May-16 23:34N 40°59' W 073°28'5 4.8
2015-May-16 22:33N 40°57' W 073°34'3 2.8
2015-May-16 21:34N 40°55' W 073°37'7 7.3
2015-May-16 20:33N 40°51' W 073°45'6 6.4
2015-May-16 19:34N 40°48' W 073°53'5 5.1
2015-May-16 18:34N 40°45' W 073°58'4 4.4
2015-May-16 17:33N 40°41' W 074°01'1 1.2
2015-May-16 16:33N 40°40' W 074°02'0 0.0
2015-May-16 15:33N 40°40' W 074°02'2 2.2
2015-May-16 14:33N 40°39' W 074°05'6 6.1
2015-May-16 13:34N 40°37' W 074°12'2 2.0
2015-May-16 12:32N 40°35' W 074°13'0 0.4
2015-May-16 11:23N 40°35' W 074°13'1 0.5
2015-May-16 10:04N 40°35' W 074°12'1 1.9
2015-May-16 09:34N 40°36' W 074°12'3 2.8
2015-May-16 08:33N 40°38' W 074°10'0 0.0
2015-May-16 07:34N 40°38' W 074°10'0 0.0
2015-May-16 06:34N 40°38' W 074°10'1 1.4
2015-May-16 05:33N 40°39' W 074°08'0 0.4
2015-May-16 04:33N 40°38' W 074°09'1 1.0
2015-May-16 03:33N 40°38' W 074°10'0 0.0
2015-May-16 02:33N 40°38' W 074°10'0 0.0
2015-May-16 01:34N 40°38' W 074°10'0 0.0
2015-May-16 00:33N 40°38' W 074°10'2 2.2
2015-May-15 23:33N 40°39' W 074°07'1 0.7
2015-May-15 22:26N 40°39' W 074°06'2 1.9
2015-May-15 21:34N 40°40' W 074°05'2 1.9
2015-May-15 20:34N 40°39' W 074°06'4 3.6
2015-May-15 19:32N 40°39' W 074°11'1 1.1
2015-May-15 18:34N 40°38' W 074°10'0 0.0
2015-May-15 17:32N 40°38' W 074°10'3 3.1
2015-May-15 16:33N 40°39' W 074°06'1 0.6
2015-May-15 15:33N 40°39' W 074°07'2 2.4
2015-May-15 14:34N 40°38' W 074°10'0 0.0
2015-May-15 13:34N 40°38' W 074°10'0 0.0
2015-May-15 12:34N 40°38' W 074°10'1 0.7
2015-May-15 11:33N 40°39' W 074°09'1 1.4
2015-May-15 10:34N 40°40' W 074°08'2 1.6
2015-May-15 09:33N 40°39' W 074°08'2 1.5
2015-May-15 08:33N 40°38' W 074°10'0 0.0
2015-May-15 07:33N 40°38' W 074°10'5 5.2
2015-May-15 06:33N 40°34' W 074°13'3 2.3
2015-May-15 05:12N 40°37' W 074°12'1 1.6
2015-May-15 04:32N 40°38' W 074°12'2 1.9
2015-May-15 03:34N 40°38' W 074°10'0 0.0
2015-May-15 02:34N 40°38' W 074°10'0 0.0
2015-May-15 01:33N 40°38' W 074°10'0 0.0
2015-May-15 00:33N 40°38' W 074°10'0 0.0
2015-May-14 23:34N 40°38' W 074°10'0 0.0
2015-May-14 22:34N 40°38' W 074°10'0 0.0
2015-May-14 21:33N 40°38' W 074°10'0 0.0
2015-May-14 20:29N 40°38' W 074°10'0 0.0
2015-May-14 19:33N 40°38' W 074°10'0 0.0
2015-May-14 18:33N 40°38' W 074°10'0 0.0
2015-May-14 17:33N 40°38' W 074°10'0 0.0
2015-May-14 16:34N 40°38' W 074°10'0 0.0
2015-May-14 15:34N 40°38' W 074°10'0 0.0
2015-May-14 07:33N 40°38' W 074°10'0 0.0
2015-May-14 06:33N 40°38' W 074°10'0 0.0
2015-May-14 05:34N 40°38' W 074°10'0 0.0
2015-May-14 04:33N 40°38' W 074°10'7 6.1
2015-May-14 03:24N 40°33' W 074°15'2 1.5
2015-May-14 02:13N 40°31' W 074°15'1 1.8
2015-May-14 01:28N 40°29' W 074°15'3 1.0
2015-May-13 22:20N 40°33' W 074°15'0 0.0
2015-May-13 21:16N 40°33' W 074°15'3 3.0
2015-May-13 20:23N 40°35' W 074°13'2 2.1
2015-May-13 19:33N 40°36' W 074°12'3 2.8
2015-May-13 18:34N 40°38' W 074°10'0 0.0
2015-May-13 17:34N 40°38' W 074°10'0 0.0
2015-May-13 16:34N 40°38' W 074°10'0 0.0
2015-May-13 15:34N 40°38' W 074°10'1 0.9
2015-May-13 14:34N 40°38' W 074°09'3 3.1
2015-May-13 13:33N 40°37' W 074°12'3 2.9
2015-May-13 12:22N 40°33' W 074°13'6 7.6
2015-May-13 11:33N 40°39' W 074°09'8 8.5
2015-May-13 10:34N 40°42' W 073°59'7 6.8
2015-May-13 09:33N 40°48' W 073°54'3 3.2
2015-May-13 08:33N 40°46' W 073°57'1010.4
2015-May-13 07:33N 40°39' W 074°07'2 2.1
2015-May-13 06:33N 40°38' W 074°10'  
Track history (hours):
 
Tides and Currents Weather Stations Pressure Air Temp Water Temp Dewpoint Dewpoint Depression Visibility Wind Speed Wind Dir Waves Ship Positions

Resolute

Owner: Providence Steamboat Co., PROVIDENCE, RI. More information available from US FCC via Universal Licensing System and Coast Guard Vessel Documentation Center.

Last reported at 2015-May-23 04:33 UTC. Time now 2015-May-23 05:52 UTC.
Position N 41°00' W 073°18'.

Length 30 m; draft 4 m.

Type: Tug. MMSI: 367091630.

Date/timePositionNaut miles runAvg speedWind from/ knotsBaromVisibWave heightAir tempDewpointWater temp
2015-May-23 04:33N 41°00' W 073°18'7 6.7
2015-May-23 03:33N 40°59' W 073°27'16 7.5
2015-May-23 01:25N 40°51' W 073°45'6 6.7
2015-May-23 00:33N 40°48' W 073°51'5 5.4
2015-May-22 23:33N 40°45' W 073°58'5 4.5
2015-May-22 22:33N 40°41' W 074°01'3 3.4
2015-May-22 21:33N 40°39' W 074°03'1 0.7
2015-May-22 20:33N 40°39' W 074°04'6 5.6
2015-May-22 19:33N 40°39' W 074°11'3 2.0
2015-May-22 18:20N 40°36' W 074°12'3 3.7
2015-May-22 17:33N 40°38' W 074°10'3 2.7
2015-May-22 16:33N 40°39' W 074°06'3 2.8
2015-May-22 15:33N 40°40' W 074°03'13 9.8
2015-May-22 14:16N 40°29' W 073°55'5 7.4
2015-May-22 13:33N 40°32' W 074°01'7 7.4
2015-May-22 12:33N 40°39' W 074°04'2 2.4
2015-May-22 11:33N 40°39' W 074°07'0 0.4
2015-May-22 10:33N 40°39' W 074°08'0 0.0
2015-May-22 09:33N 40°38' W 074°08'2 1.8
2015-May-22 08:32N 40°39' W 074°10'0 0.0
2015-May-22 07:33N 40°39' W 074°10'0 0.0
2015-May-22 06:32N 40°39' W 074°10'6 4.8
2015-May-22 05:15N 40°33' W 074°14'0 0.0
2015-May-22 04:09N 40°33' W 074°14'0 0.0
2015-May-22 03:29N 40°33' W 074°14'3 1.6
2015-May-22 01:24N 40°36' W 074°12'6 7.4
2015-May-22 00:33N 40°39' W 074°05'3 3.4
2015-May-21 23:33N 40°40' W 074°00'4 4.0
2015-May-21 22:33N 40°39' W 074°05'3 3.3
2015-May-21 21:33N 40°38' W 074°10'0 0.0
2015-May-21 20:33N 40°38' W 074°10'0 0.0
2015-May-21 19:33N 40°38' W 074°10'0 0.0
2015-May-21 18:31N 40°38' W 074°10'0 0.0
2015-May-21 17:33N 40°38' W 074°10'3 3.2
2015-May-21 16:33N 40°39' W 074°06'4 4.1
2015-May-21 15:33N 40°40' W 074°00'1 1.2
2015-May-21 14:33N 40°40' W 074°02'1 0.6
2015-May-21 13:34N 40°40' W 074°01'3 2.7
2015-May-21 12:34N 40°42' W 073°60'5 5.3
2015-May-21 11:34N 40°47' W 073°56'2 2.0
2015-May-21 10:33N 40°48' W 073°54'0 0.0
2015-May-21 09:27N 40°48' W 073°54'0 0.0
2015-May-21 08:28N 40°48' W 073°54'0 0.0
2015-May-21 07:33N 40°48' W 073°54'0 0.0
2015-May-21 06:31N 40°48' W 073°54'0 0.0
2015-May-21 05:19N 40°48' W 073°54'0 0.0
2015-May-21 04:33N 40°48' W 073°54'0 0.0
2015-May-21 03:33N 40°48' W 073°54'0 0.0
2015-May-21 02:26N 40°48' W 073°54'0 0.0
2015-May-21 01:34N 40°48' W 073°54'0 0.0
2015-May-21 00:22N 40°48' W 073°54'0 0.0
2015-May-20 23:32N 40°48' W 073°54'2 2.0
2015-May-20 22:33N 40°47' W 073°56'5 5.0
2015-May-20 21:34N 40°42' W 073°59'4 3.7
2015-May-20 20:34N 40°40' W 074°02'0 0.0
2015-May-20 19:34N 40°40' W 074°02'0 0.0
2015-May-20 18:33N 40°40' W 074°02'0 0.0
2015-May-20 17:33N 40°40' W 074°02'5 5.0
2015-May-20 16:33N 40°38' W 074°09'5 4.4
2015-May-20 15:30N 40°35' W 074°13'4 4.2
2015-May-20 14:34N 40°38' W 074°10'1 0.9
2015-May-20 13:32N 40°39' W 074°09'4 3.8
2015-May-20 12:33N 40°40' W 074°04'0 0.0
2015-May-20 11:33N 40°40' W 074°04'0 0.0
2015-May-20 10:33N 40°40' W 074°04'0 0.0
2015-May-20 09:28N 40°40' W 074°04'1 1.5
2015-May-20 08:34N 40°39' W 074°05'2 2.1
2015-May-20 07:33N 40°39' W 074°03'2 2.2
2015-May-20 06:34N 40°40' W 074°01'7 7.2
2015-May-20 05:33N 40°38' W 074°10'0 0.0
2015-May-20 04:34N 40°38' W 074°10'0 0.0
2015-May-20 03:33N 40°38' W 074°10'0 0.0
2015-May-20 02:34N 40°38' W 074°10'1 0.6
2015-May-20 01:34N 40°39' W 074°09'3 3.2
2015-May-20 00:33N 40°42' W 074°08'0 0.3
2015-May-19 23:33N 40°41' W 074°08'1 1.0
2015-May-19 22:33N 40°40' W 074°08'0 0.0
2015-May-19 21:33N 40°40' W 074°08'0 0.0
2015-May-19 20:34N 40°40' W 074°08'0 0.0
2015-May-19 19:34N 40°40' W 074°08'0 0.0
2015-May-19 18:34N 40°40' W 074°08'0 0.0
2015-May-19 17:33N 40°40' W 074°08'0 0.0
2015-May-19 16:34N 40°40' W 074°08'1 0.5
2015-May-19 15:34N 40°41' W 074°08'1 0.9
2015-May-19 14:33N 40°42' W 074°08'3 3.3
2015-May-19 13:34N 40°38' W 074°10'0 0.2
2015-May-19 12:34N 40°38' W 074°10'0 0.0
2015-May-19 11:33N 40°38' W 074°10'0 0.0
2015-May-19 10:33N 40°38' W 074°10'0 0.0
2015-May-19 09:33N 40°38' W 074°10'0 0.0
2015-May-19 08:33N 40°38' W 074°10'0 0.0
2015-May-19 07:33N 40°38' W 074°10'0 0.0
2015-May-19 06:33N 40°38' W 074°10'0 0.0
2015-May-19 05:33N 40°38' W 074°10'0 0.0
2015-May-19 04:33N 40°38' W 074°10'0 0.0
2015-May-19 03:33N 40°38' W 074°10'0 0.0
2015-May-19 02:34N 40°38' W 074°10'0 0.0
2015-May-19 01:33N 40°38' W 074°10'0 0.0
2015-May-19 00:32N 40°38' W 074°10'0 0.0
2015-May-18 23:33N 40°38' W 074°10'0 0.0
2015-May-18 22:34N 40°38' W 074°10'2 2.5
2015-May-18 21:34N 40°41' W 074°09'2 2.0
2015-May-18 20:34N 40°39' W 074°09'4 3.9
2015-May-18 19:34N 40°40' W 074°04'0 0.0
2015-May-18 18:34N 40°40' W 074°04'1 1.4
2015-May-18 17:33N 40°39' W 074°03'4 4.1
2015-May-18 16:33N 40°43' W 074°02'7 6.6
2015-May-18 15:33N 40°47' W 073°55'6 6.4
2015-May-18 14:33N 40°49' W 073°47'7 6.6
2015-May-18 13:32N 40°54' W 073°41'10 9.8
2015-May-18 12:34N 40°58' W 073°30'9 9.3
2015-May-18 11:34N 41°01' W 073°18'9 9.1
2015-May-18 10:33N 41°02' W 073°06'9 8.5
2015-May-18 09:33N 41°04' W 072°55'8 8.3
2015-May-18 08:33N 41°06' W 072°44'8 7.6
2015-May-18 07:34N 41°08' W 072°34'7 6.5
2015-May-18 06:34N 41°09' W 072°26'6 6.0
2015-May-18 05:33N 41°11' W 072°18'6 6.4
2015-May-18 04:33N 41°13' W 072°10'8 8.1
2015-May-18 03:33N 41°14' W 071°60'9 9.2
2015-May-18 02:33N 41°16' W 071°48'9 8.7
2015-May-18 01:33N 41°18' W 071°36'8 7.6
2015-May-18 00:33N 41°20' W 071°27'8 8.4
2015-May-17 23:33N 41°28' W 071°22'5 5.3
2015-May-17 22:33N 41°33' W 071°19'3 2.5
2015-May-17 21:34N 41°31' W 071°21'5 4.6
2015-May-17 20:33N 41°26' W 071°22'4 4.4
2015-May-17 19:33N 41°22' W 071°21'4 4.1
2015-May-17 18:33N 41°18' W 071°21'3 3.5
2015-May-17 17:33N 41°14' W 071°21'1 1.1
2015-May-17 16:33N 41°15' W 071°22'4 3.7
2015-May-17 15:33N 41°19' W 071°22'4 3.6
2015-May-17 14:34N 41°22' W 071°22'3 2.7
2015-May-17 13:33N 41°22' W 071°26'5 5.2
2015-May-17 12:33N 41°18' W 071°30'6 5.8
2015-May-17 11:33N 41°17' W 071°38'6 5.8
2015-May-17 10:33N 41°16' W 071°46'6 6.1
2015-May-17 09:33N 41°15' W 071°54'8 7.7
2015-May-17 08:33N 41°14' W 072°04'9 8.6
2015-May-17 07:33N 41°13' W 072°15'10 9.7
2015-May-17 06:34N 41°09' W 072°27'9 8.7
2015-May-17 05:34N 41°06' W 072°38'8 7.6
2015-May-17 04:33N 41°05' W 072°48'7 6.9
2015-May-17 03:33N 41°03' W 072°57'7 6.6
2015-May-17 02:33N 41°02' W 073°05'6 6.3
2015-May-17 01:33N 41°01' W 073°14'6 5.9
2015-May-17 00:33N 41°01' W 073°21'6 5.7
2015-May-16 23:34N 40°59' W 073°28'5 4.8
2015-May-16 22:33N 40°57' W 073°34'3 2.8
2015-May-16 21:34N 40°55' W 073°37'7 7.3
2015-May-16 20:33N 40°51' W 073°45'6 6.4
2015-May-16 19:34N 40°48' W 073°53'5 5.1
2015-May-16 18:34N 40°45' W 073°58'4 4.4
2015-May-16 17:33N 40°41' W 074°01'1 1.2
2015-May-16 16:33N 40°40' W 074°02'0 0.0
2015-May-16 15:33N 40°40' W 074°02'2 2.2
2015-May-16 14:33N 40°39' W 074°05'6 6.1
2015-May-16 13:34N 40°37' W 074°12'2 2.0
2015-May-16 12:32N 40°35' W 074°13'0 0.4
2015-May-16 11:23N 40°35' W 074°13'1 0.5
2015-May-16 10:04N 40°35' W 074°12'1 1.9
2015-May-16 09:34N 40°36' W 074°12'3 2.8
2015-May-16 08:33N 40°38' W 074°10'0 0.0
2015-May-16 07:34N 40°38' W 074°10'0 0.0
2015-May-16 06:34N 40°38' W 074°10'1 1.4
2015-May-16 05:33N 40°39' W 074°08'0 0.4
2015-May-16 04:33N 40°38' W 074°09'1 1.0
2015-May-16 03:33N 40°38' W 074°10'0 0.0
2015-May-16 02:33N 40°38' W 074°10'0 0.0
2015-May-16 01:34N 40°38' W 074°10'0 0.0
2015-May-16 00:33N 40°38' W 074°10'2 2.2
2015-May-15 23:33N 40°39' W 074°07'1 0.7
2015-May-15 22:26N 40°39' W 074°06'2 1.9
2015-May-15 21:34N 40°40' W 074°05'2 1.9
2015-May-15 20:34N 40°39' W 074°06'4 3.6
2015-May-15 19:32N 40°39' W 074°11'1 1.1
2015-May-15 18:34N 40°38' W 074°10'0 0.0
2015-May-15 17:32N 40°38' W 074°10'3 3.1
2015-May-15 16:33N 40°39' W 074°06'1 0.6
2015-May-15 15:33N 40°39' W 074°07'2 2.4
2015-May-15 14:34N 40°38' W 074°10'0 0.0
2015-May-15 13:34N 40°38' W 074°10'0 0.0
2015-May-15 12:34N 40°38' W 074°10'1 0.7
2015-May-15 11:33N 40°39' W 074°09'1 1.4
2015-May-15 10:34N 40°40' W 074°08'2 1.6
2015-May-15 09:33N 40°39' W 074°08'2 1.5
2015-May-15 08:33N 40°38' W 074°10'0 0.0
2015-May-15 07:33N 40°38' W 074°10'5 5.2
2015-May-15 06:33N 40°34' W 074°13'3 2.3
2015-May-15 05:12N 40°37' W 074°12'1 1.6
2015-May-15 04:32N 40°38' W 074°12'2 1.9
2015-May-15 03:34N 40°38' W 074°10'0 0.0
2015-May-15 02:34N 40°38' W 074°10'0 0.0
2015-May-15 01:33N 40°38' W 074°10'0 0.0
2015-May-15 00:33N 40°38' W 074°10'0 0.0
2015-May-14 23:34N 40°38' W 074°10'0 0.0
2015-May-14 22:34N 40°38' W 074°10'0 0.0
2015-May-14 21:33N 40°38' W 074°10'0 0.0
2015-May-14 20:29N 40°38' W 074°10'0 0.0
2015-May-14 19:33N 40°38' W 074°10'0 0.0
2015-May-14 18:33N 40°38' W 074°10'0 0.0
2015-May-14 17:33N 40°38' W 074°10'0 0.0
2015-May-14 16:34N 40°38' W 074°10'0 0.0
2015-May-14 15:34N 40°38' W 074°10'0 0.0
2015-May-14 07:33N 40°38' W 074°10'0 0.0
2015-May-14 06:33N 40°38' W 074°10'0 0.0
2015-May-14 05:34N 40°38' W 074°10'0 0.0
2015-May-14 04:33N 40°38' W 074°10'7 6.1
2015-May-14 03:24N 40°33' W 074°15'2 1.5
2015-May-14 02:13N 40°31' W 074°15'1 1.8
2015-May-14 01:28N 40°29' W 074°15'3 1.0
2015-May-13 22:20N 40°33' W 074°15'0 0.0
2015-May-13 21:16N 40°33' W 074°15'3 3.0
2015-May-13 20:23N 40°35' W 074°13'2 2.1
2015-May-13 19:33N 40°36' W 074°12'3 2.8
2015-May-13 18:34N 40°38' W 074°10'0 0.0
2015-May-13 17:34N 40°38' W 074°10'0 0.0
2015-May-13 16:34N 40°38' W 074°10'0 0.0
2015-May-13 15:34N 40°38' W 074°10'1 0.9
2015-May-13 14:34N 40°38' W 074°09'3 3.1
2015-May-13 13:33N 40°37' W 074°12'3 2.9
2015-May-13 12:22N 40°33' W 074°13'6 7.6
2015-May-13 11:33N 40°39' W 074°09'8 8.5
2015-May-13 10:34N 40°42' W 073°59'7 6.8
2015-May-13 09:33N 40°48' W 073°54'3 3.2
2015-May-13 08:33N 40°46' W 073°57'1010.4
2015-May-13 07:33N 40°39' W 074°07'2 2.1
2015-May-13 06:33N 40°38' W 074°10'  

Dump ship's entire track history